createdAt,value
2017-08-09T00:00:46.673Z,39.27
2017-08-09T00:03:12.804Z,52.67
2017-08-09T00:05:38.964Z,32.90
2017-08-09T00:08:05.089Z,37.30
2017-08-09T00:10:31.213Z,47.17
2017-08-09T00:12:57.354Z,44.47
2017-08-09T00:15:23.471Z,61.70
2017-08-09T00:17:49.601Z,53.17
2017-08-09T00:20:15.786Z,57.63
2017-08-09T00:22:41.920Z,58.67
2017-08-09T00:25:08.039Z,43.87
2017-08-09T00:27:34.200Z,49.60
2017-08-09T00:30:00.342Z,51.93
2017-08-09T00:32:26.481Z,55.50
2017-08-09T00:34:53.046Z,63.10
2017-08-09T00:37:19.172Z,77.83
2017-08-09T00:39:45.298Z,64.37
2017-08-09T00:42:11.772Z,71.50
2017-08-09T00:44:37.906Z,77.83
2017-08-09T00:47:04.022Z,70.63
2017-08-09T00:49:30.191Z,75.43
2017-08-09T00:51:57.073Z,70.13
2017-08-09T00:54:23.210Z,51.93
2017-08-09T00:56:49.361Z,79.70
2017-08-09T00:59:15.504Z,78.30
2017-08-09T01:01:42.373Z,67.40
2017-08-09T01:04:08.849Z,63.77
2017-08-09T01:06:34.969Z,76.20
2017-08-09T01:09:01.089Z,84.43
2017-08-09T01:11:27.237Z,71.07
2017-08-09T01:13:53.354Z,65.87
2017-08-09T01:16:19.477Z,76.20
2017-08-09T01:18:45.624Z,73.53
2017-08-09T01:21:11.729Z,78.10
2017-08-09T01:23:37.840Z,62.67
2017-08-09T01:26:03.989Z,72.70
2017-08-09T01:28:30.108Z,94.60
2017-08-09T01:30:56.304Z,97.37
2017-08-09T01:33:22.771Z,86.47
2017-08-09T01:35:48.912Z,88.17
2017-08-09T01:38:15.075Z,86.37
2017-08-09T01:40:41.187Z,89.13
2017-08-09T01:43:08.046Z,89.23
2017-08-09T01:45:34.168Z,74.67
2017-08-09T01:48:00.323Z,91.93
2017-08-09T01:50:26.452Z,88.07
2017-08-09T01:52:52.584Z,77.43
2017-08-09T01:55:18.746Z,104.60
2017-08-09T01:57:44.871Z,84.57
2017-08-09T02:00:11.731Z,83.50
2017-08-09T02:02:38.706Z,102.53
2017-08-09T02:05:04.802Z,66.90
2017-08-09T02:07:30.911Z,86.73
2017-08-09T02:09:57.806Z,91.37
2017-08-09T02:12:23.915Z,101.00
2017-08-09T02:14:50.015Z,90.47
2017-08-09T02:17:16.909Z,73.73
2017-08-09T02:19:43.012Z,77.67
2017-08-09T02:22:09.111Z,81.57
2017-08-09T02:24:35.983Z,79.20
2017-08-09T02:27:02.081Z,80.93
2017-08-09T02:29:28.917Z,78.47
2017-08-09T02:31:56.043Z,63.23
2017-08-09T02:34:22.147Z,73.77
2017-08-09T02:36:48.287Z,79.47
2017-08-09T02:39:14.404Z,79.47
2017-08-09T02:41:40.499Z,83.83
2017-08-09T02:44:06.632Z,75.73
2017-08-09T02:46:32.759Z,77.03
2017-08-09T02:48:58.872Z,75.00
2017-08-09T02:51:25.010Z,65.77
2017-08-09T02:53:51.107Z,72.13
2017-08-09T02:56:17.211Z,81.20
2017-08-09T02:58:43.452Z,75.40
2017-08-09T03:01:10.304Z,74.13
2017-08-09T03:03:36.414Z,69.87
2017-08-09T03:06:03.288Z,64.27
2017-08-09T03:08:29.391Z,58.80
2017-08-09T03:10:56.286Z,67.27
2017-08-09T03:13:22.602Z,56.77
2017-08-09T03:15:48.695Z,50.03
2017-08-09T03:18:14.827Z,57.63
2017-08-09T03:20:41.295Z,32.00
2017-08-09T03:23:07.399Z,43.60
2017-08-09T03:25:33.518Z,56.77
2017-08-09T03:27:59.876Z,42.40
2017-08-09T03:30:25.980Z,43.10
2017-08-09T03:32:52.082Z,50.83
2017-08-09T03:35:18.400Z,29.57
2017-08-09T03:37:45.517Z,28.17
2017-08-09T03:40:11.632Z,36.03
2017-08-09T03:42:37.763Z,32.70
2017-08-09T03:45:03.900Z,35.07
2017-08-09T03:47:30.003Z,33.53
2017-08-09T03:49:56.282Z,45.40
2017-08-09T03:52:23.123Z,29.77
2017-08-09T03:54:49.967Z,30.30
2017-08-09T03:57:16.447Z,34.03
2017-08-09T03:59:42.542Z,30.93
2017-08-09T04:02:08.646Z,39.50
2017-08-09T04:04:35.513Z,28.73
2017-08-09T04:07:01.616Z,33.13
2017-08-09T04:09:28.463Z,36.53
2017-08-09T04:11:54.690Z,31.10
2017-08-09T04:14:21.534Z,31.13
2017-08-09T04:16:47.634Z,34.77
2017-08-09T04:19:13.751Z,49.60
2017-08-09T04:21:39.851Z,32.60
2017-08-09T04:24:05.960Z,32.90
2017-08-09T04:26:32.092Z,41.00
2017-08-09T04:28:58.187Z,35.60
2017-08-09T04:31:25.041Z,29.80
2017-08-09T04:33:51.426Z,50.53
2017-08-09T04:36:17.586Z,29.90
2017-08-09T04:38:44.426Z,52.17
2017-08-09T04:41:11.534Z,33.50
2017-08-09T04:43:37.641Z,35.23
2017-08-09T04:46:04.074Z,49.70
2017-08-09T04:48:30.185Z,39.30
2017-08-09T04:50:56.299Z,37.00
2017-08-09T04:53:22.437Z,35.53
2017-08-09T04:55:48.541Z,42.80
2017-08-09T04:58:15.386Z,46.17
2017-08-09T05:00:42.335Z,33.97
2017-08-09T05:03:08.462Z,34.90
2017-08-09T05:05:34.578Z,39.00
2017-08-09T05:08:01.444Z,39.33
2017-08-09T05:10:27.558Z,51.57
2017-08-09T05:12:53.662Z,38.60
2017-08-09T05:15:20.937Z,31.47
2017-08-09T05:17:47.037Z,41.20
2017-08-09T05:20:13.887Z,40.37
2017-08-09T05:22:41.286Z,44.53
2017-08-09T05:25:07.398Z,50.00
2017-08-09T05:27:33.492Z,53.03
2017-08-09T05:30:00.689Z,67.67
2017-08-09T05:32:26.795Z,44.37
2017-08-09T05:34:52.889Z,45.57
2017-08-09T05:37:19.788Z,55.40
2017-08-09T05:39:45.889Z,55.77
2017-08-09T05:42:12.028Z,43.03
2017-08-09T05:44:38.263Z,45.00
2017-08-09T05:47:04.358Z,58.93
2017-08-09T05:49:30.458Z,45.00
2017-08-09T05:51:57.322Z,60.57
2017-08-09T05:54:23.422Z,48.60
2017-08-09T05:56:49.515Z,45.23
2017-08-09T05:59:15.840Z,50.20
2017-08-09T06:01:41.954Z,50.37
2017-08-09T06:04:08.066Z,52.73
2017-08-09T06:06:34.202Z,46.73
2017-08-09T06:09:00.307Z,66.27
2017-08-09T06:11:26.411Z,51.03
2017-08-09T06:13:53.289Z,72.57
2017-08-09T06:16:19.381Z,52.20
2017-08-09T06:18:46.218Z,52.63
2017-08-09T06:21:13.023Z,55.60
2017-08-09T06:23:39.140Z,45.73
2017-08-09T06:26:05.273Z,44.00
2017-08-09T06:28:31.399Z,46.17
2017-08-09T06:30:57.504Z,47.13
2017-08-09T06:33:23.598Z,46.33
2017-08-09T06:35:50.434Z,42.47
2017-08-09T06:38:17.279Z,48.07
2017-08-09T06:40:44.122Z,40.50
2017-08-09T06:43:11.426Z,38.60
2017-08-09T06:45:37.518Z,43.20
2017-08-09T06:48:03.614Z,38.83
2017-08-09T06:50:29.766Z,35.30
2017-08-09T06:52:55.895Z,38.40
2017-08-09T06:55:21.994Z,33.63
2017-08-09T06:57:48.846Z,34.83
2017-08-09T07:00:15.705Z,40.23
2017-08-09T07:02:41.805Z,41.00
2017-08-09T07:05:08.783Z,35.20
2017-08-09T07:07:34.879Z,35.07
2017-08-09T07:10:00.974Z,33.80
2017-08-09T07:12:27.100Z,28.53
2017-08-09T07:14:53.202Z,25.73
2017-08-09T07:17:19.319Z,27.20
2017-08-09T07:19:45.458Z,23.23
2017-08-09T07:22:11.555Z,22.03
2017-08-09T07:24:37.656Z,23.90
2017-08-09T07:27:04.531Z,23.23
2017-08-09T07:29:30.644Z,27.33
2017-08-09T07:31:56.752Z,28.00
2017-08-09T07:34:23.953Z,25.23
2017-08-09T07:36:50.053Z,19.50
2017-08-09T07:39:16.161Z,17.10
2017-08-09T07:41:43.042Z,20.23
2017-08-09T07:44:10.266Z,13.77
2017-08-09T07:46:36.371Z,15.83
2017-08-09T07:49:03.242Z,18.23
2017-08-09T07:51:29.368Z,17.43
2017-08-09T07:53:55.458Z,20.70
2017-08-09T07:56:22.338Z,12.83
2017-08-09T07:58:48.461Z,12.70
2017-08-09T08:01:14.559Z,14.87
2017-08-09T08:03:41.425Z,19.20
2017-08-09T08:06:07.514Z,11.30
2017-08-09T08:08:33.611Z,11.13
2017-08-09T08:10:59.716Z,13.90
2017-08-09T08:13:25.814Z,12.20
2017-08-09T08:15:51.939Z,11.47
2017-08-09T08:18:18.049Z,10.97
2017-08-09T08:20:44.144Z,14.10
2017-08-09T08:23:10.256Z,14.50
2017-08-09T08:25:36.660Z,15.10
2017-08-09T08:28:02.785Z,9.17
2017-08-09T08:30:28.902Z,12.97
2017-08-09T08:32:55.004Z,13.30
2017-08-09T08:35:21.846Z,11.40
2017-08-09T08:37:48.734Z,13.80
2017-08-09T08:40:14.838Z,15.60
2017-08-09T08:42:40.950Z,13.93
2017-08-09T08:45:07.124Z,11.40
2017-08-09T08:47:33.217Z,11.60
2017-08-09T08:49:59.315Z,13.03
2017-08-09T08:52:26.204Z,12.50
2017-08-09T08:54:52.304Z,10.00
2017-08-09T08:57:18.419Z,8.57
2017-08-09T08:59:45.462Z,10.03
2017-08-09T09:02:12.299Z,11.73
2017-08-09T09:04:39.150Z,14.83
2017-08-09T09:07:06.167Z,12.00
2017-08-09T09:09:32.262Z,10.40
2017-08-09T09:11:58.358Z,20.23
2017-08-09T09:14:24.719Z,16.13
2017-08-09T09:16:50.824Z,16.60
2017-08-09T09:19:16.930Z,120.83
2017-08-09T09:21:43.820Z,13.80
2017-08-09T09:24:09.930Z,17.73
2017-08-09T09:26:36.021Z,15.87
2017-08-09T09:29:02.890Z,19.50
2017-08-09T09:31:28.987Z,13.00
2017-08-09T09:33:55.830Z,15.33
2017-08-09T09:36:22.699Z,13.70
2017-08-09T09:38:48.798Z,14.67
2017-08-09T09:41:15.638Z,17.03
2017-08-09T09:43:42.842Z,13.87
2017-08-09T09:46:08.942Z,15.63
2017-08-09T09:48:35.052Z,12.60
2017-08-09T09:51:01.194Z,15.30
2017-08-09T09:53:27.288Z,15.70
2017-08-09T09:55:54.126Z,18.47
2017-08-09T09:58:21.014Z,13.17
2017-08-09T10:00:47.138Z,14.83
2017-08-09T10:03:13.256Z,21.77
2017-08-09T10:05:39.546Z,19.23
2017-08-09T10:08:05.648Z,15.97
2017-08-09T10:10:31.759Z,19.20
2017-08-09T10:12:57.867Z,17.20
2017-08-09T10:15:23.976Z,18.57
2017-08-09T10:17:50.098Z,17.30
2017-08-09T10:20:16.202Z,16.13
2017-08-09T10:22:43.050Z,18.60
2017-08-09T10:25:10.257Z,15.77
2017-08-09T10:27:36.355Z,14.60
2017-08-09T10:30:02.479Z,21.57
2017-08-09T10:32:28.598Z,17.13
2017-08-09T10:34:54.702Z,16.60
2017-08-09T10:37:21.557Z,18.30
2017-08-09T10:39:47.816Z,15.30
2017-08-09T10:42:13.959Z,22.07
2017-08-09T10:44:40.067Z,18.97
2017-08-09T10:47:06.919Z,14.10
2017-08-09T10:49:33.011Z,15.50
2017-08-09T10:51:59.350Z,14.40
2017-08-09T10:54:25.716Z,18.57
2017-08-09T10:56:51.833Z,18.20
2017-08-09T10:59:17.942Z,18.73
2017-08-09T11:01:44.063Z,14.73
2017-08-09T11:04:10.156Z,15.63
2017-08-09T11:06:37.002Z,17.80
2017-08-09T11:09:03.892Z,18.07
2017-08-09T11:11:29.986Z,23.60
2017-08-09T11:13:56.078Z,18.60
2017-08-09T11:16:22.214Z,20.07
2017-08-09T11:18:48.307Z,17.47
2017-08-09T11:21:14.407Z,20.97
2017-08-09T11:23:40.545Z,19.97
2017-08-09T11:26:06.633Z,21.80
2017-08-09T11:28:33.562Z,21.93
2017-08-09T11:31:00.428Z,17.47
2017-08-09T11:33:26.530Z,19.07
2017-08-09T11:35:53.370Z,18.63
2017-08-09T11:38:20.283Z,21.03
2017-08-09T11:40:46.383Z,22.83
2017-08-09T11:43:12.479Z,20.23
2017-08-09T11:45:38.618Z,27.33
2017-08-09T11:48:04.974Z,21.33
2017-08-09T11:50:31.099Z,30.43
2017-08-09T11:52:57.234Z,18.30
2017-08-09T11:55:23.335Z,20.20
2017-08-09T11:57:49.438Z,27.00
2017-08-09T12:00:15.572Z,20.13
2017-08-09T12:02:41.668Z,20.30
2017-08-09T12:05:08.514Z,23.90
2017-08-09T12:07:35.387Z,21.17
2017-08-09T12:10:01.499Z,21.20
2017-08-09T12:12:27.608Z,21.00
2017-08-09T12:14:54.467Z,19.10
2017-08-09T12:17:20.562Z,24.60
2017-08-09T12:19:46.666Z,18.80
2017-08-09T12:22:12.807Z,19.10
2017-08-09T12:24:38.906Z,21.03
2017-08-09T12:27:04.998Z,14.17
2017-08-09T12:29:31.135Z,18.10
2017-08-09T12:31:57.239Z,17.40
2017-08-09T12:34:23.370Z,16.37
2017-08-09T12:36:49.840Z,13.63
2017-08-09T12:39:15.947Z,14.63
2017-08-09T12:41:42.051Z,14.57
2017-08-09T12:44:08.157Z,16.53
2017-08-09T12:46:34.999Z,17.03
2017-08-09T12:49:01.902Z,13.90
2017-08-09T12:51:28.053Z,15.80
2017-08-09T12:53:54.157Z,15.23
2017-08-09T12:56:20.577Z,13.63
2017-08-09T12:58:46.686Z,16.23
2017-08-09T13:01:12.775Z,17.20
2017-08-09T13:03:39.163Z,13.63
2017-08-09T13:06:05.266Z,15.90
2017-08-09T13:08:31.375Z,14.33
2017-08-09T13:10:58.494Z,13.97
2017-08-09T13:13:24.597Z,19.20
2017-08-09T13:15:50.707Z,11.03
2017-08-09T13:18:16.832Z,12.37
2017-08-09T13:20:42.931Z,10.10
2017-08-09T13:23:09.039Z,10.23
2017-08-09T13:25:35.258Z,8.93
2017-08-09T13:28:02.167Z,8.17
2017-08-09T13:30:28.283Z,40.73
2017-08-09T13:32:54.383Z,8.47
2017-08-09T13:35:20.749Z,12.50
2017-08-09T13:37:46.902Z,11.43
2017-08-09T13:40:13.051Z,10.93
2017-08-09T13:42:39.148Z,8.70
2017-08-09T13:45:05.250Z,9.07
2017-08-09T13:47:31.387Z,8.57
2017-08-09T13:49:57.524Z,50.57
2017-08-09T13:52:23.624Z,9.23
2017-08-09T13:54:49.946Z,11.83
2017-08-09T13:57:16.043Z,9.70
2017-08-09T13:59:42.143Z,9.17
2017-08-09T14:02:09.004Z,9.70
2017-08-09T14:04:35.120Z,10.47
2017-08-09T14:07:01.968Z,8.93
2017-08-09T14:09:29.168Z,7.80
2017-08-09T14:11:55.271Z,9.30
2017-08-09T14:14:21.396Z,12.23
2017-08-09T14:16:47.522Z,11.60
2017-08-09T14:19:13.623Z,17.00
2017-08-09T14:21:39.730Z,14.60
2017-08-09T14:24:06.235Z,7.00
2017-08-09T14:26:32.352Z,9.27
2017-08-09T14:28:58.454Z,5.23
2017-08-09T14:31:24.626Z,12.97
2017-08-09T14:33:50.735Z,7.57
2017-08-09T14:36:17.590Z,8.13
2017-08-09T14:38:43.807Z,6.20
2017-08-09T14:41:09.900Z,6.43
2017-08-09T14:43:35.993Z,6.47
2017-08-09T14:46:02.127Z,6.43
2017-08-09T14:48:28.968Z,5.53
2017-08-09T14:50:55.380Z,5.87
2017-08-09T14:53:21.503Z,5.10
2017-08-09T14:55:47.616Z,5.20
2017-08-09T14:58:13.730Z,4.30
2017-08-09T15:00:39.847Z,4.90
2017-08-09T15:03:05.954Z,3.97
2017-08-09T15:05:32.354Z,4.07
2017-08-09T15:07:59.190Z,5.37
2017-08-09T15:10:25.296Z,4.40
2017-08-09T15:12:51.414Z,7.40
2017-08-09T15:15:17.511Z,3.90
2017-08-09T15:17:43.626Z,6.73
2017-08-09T15:20:10.043Z,7.93
2017-08-09T15:22:36.156Z,6.27
2017-08-09T15:25:03.014Z,11.07
2017-08-09T15:27:29.154Z,4.60
2017-08-09T15:29:55.263Z,6.67
2017-08-09T15:32:21.367Z,6.17
2017-08-09T15:34:48.245Z,6.23
2017-08-09T15:37:14.589Z,6.00
2017-08-09T15:39:40.723Z,9.23
2017-08-09T15:42:06.843Z,5.53
2017-08-09T15:44:33.000Z,10.83
2017-08-09T15:46:59.111Z,7.40
2017-08-09T15:49:25.774Z,7.53
2017-08-09T15:51:51.924Z,7.00
2017-08-09T15:54:18.011Z,8.27
2017-08-09T15:56:44.961Z,8.30
2017-08-09T15:59:11.191Z,7.80
2017-08-09T16:01:37.296Z,8.30
2017-08-09T16:04:03.381Z,8.87
2017-08-09T16:06:29.743Z,7.70
2017-08-09T16:08:55.853Z,9.77
2017-08-09T16:11:21.959Z,8.63
2017-08-09T16:13:48.102Z,8.17
2017-08-09T16:16:14.199Z,9.90
2017-08-09T16:18:41.038Z,10.33
2017-08-09T16:21:08.241Z,9.73
2017-08-09T16:23:34.374Z,8.97
2017-08-09T16:26:00.478Z,14.17
2017-08-09T16:28:26.632Z,9.80
2017-08-09T16:30:52.739Z,16.47
2017-08-09T16:33:18.856Z,11.70
2017-08-09T16:35:44.997Z,10.43
2017-08-09T16:38:11.335Z,10.13
2017-08-09T16:40:37.937Z,8.17
2017-08-09T16:43:04.207Z,8.63
2017-08-09T16:45:31.273Z,11.20
2017-08-09T16:47:57.666Z,12.00
2017-08-09T16:50:24.071Z,12.97
2017-08-09T16:52:50.194Z,16.13
2017-08-09T16:55:16.305Z,13.30
2017-08-09T16:57:43.175Z,10.80
2017-08-09T17:00:09.286Z,11.53
2017-08-09T17:16:31.358Z,99.33
2017-08-09T17:26:23.706Z,138.77
2017-08-09T17:39:00.086Z,9.13
2017-08-09T17:41:36.568Z,11.57
2017-08-09T17:44:03.495Z,8.43
2017-08-09T17:46:29.715Z,10.37
2017-08-09T17:48:55.978Z,9.87
2017-08-09T17:51:22.168Z,10.00
2017-08-09T17:53:48.371Z,7.73
2017-08-09T17:56:14.501Z,8.57
2017-08-09T17:58:40.624Z,9.97
2017-08-09T18:01:06.740Z,8.10
2017-08-09T18:03:32.888Z,7.90
2017-08-09T18:05:58.984Z,8.80
2017-08-09T18:08:25.211Z,13.00
2017-08-09T18:10:51.904Z,9.00
2017-08-09T18:13:18.106Z,7.67
2017-08-09T18:15:44.218Z,11.23
2017-08-09T18:18:10.563Z,10.00
2017-08-09T18:20:36.755Z,18.83
2017-08-09T18:23:02.930Z,7.10
2017-08-09T18:25:29.375Z,14.67
2017-08-09T18:27:55.517Z,12.40
2017-08-09T18:30:21.682Z,25.13
2017-08-09T18:32:47.827Z,10.37
2017-08-09T18:35:13.939Z,88.90
2017-08-09T18:37:40.312Z,21.43
2017-08-09T18:40:07.210Z,78.10
2017-08-09T18:42:34.181Z,61.00
2017-08-09T18:45:00.943Z,65.90
2017-08-09T18:47:28.580Z,46.10
2017-08-09T18:49:56.408Z,62.87
2017-08-09T18:52:23.399Z,54.27
2017-08-09T18:54:51.001Z,36.90
2017-08-09T18:57:18.591Z,50.53
2017-08-09T18:59:45.691Z,48.57
2017-08-09T19:02:12.000Z,158.87
2017-08-09T19:04:38.148Z,20.47
2017-08-09T19:07:05.857Z,9.60
2017-08-09T19:09:32.818Z,40.40
2017-08-09T19:11:58.955Z,27.57
2017-08-09T19:14:25.082Z,78.80
2017-08-09T19:16:51.198Z,53.77
2017-08-09T19:19:17.478Z,70.00
2017-08-09T19:21:43.752Z,172.27
2017-08-09T19:24:10.684Z,189.13
2017-08-09T19:26:36.849Z,173.37
2017-08-09T19:29:02.991Z,37.73
2017-08-09T19:31:29.835Z,136.67
2017-08-09T19:33:56.822Z,95.03
2017-08-09T19:36:22.930Z,10.90
2017-08-09T19:38:49.364Z,169.30
2017-08-09T19:41:15.474Z,188.03
2017-08-09T19:43:42.648Z,112.70
2017-08-09T19:46:08.865Z,95.83
2017-08-09T19:48:34.966Z,41.77
2017-08-09T19:51:01.863Z,42.33
2017-08-09T19:53:28.195Z,32.93
2017-08-09T19:55:54.570Z,56.40
2017-08-09T19:58:21.584Z,42.53
2017-08-09T20:00:47.833Z,94.43
2017-08-09T20:03:14.003Z,88.03
2017-08-09T20:05:40.417Z,22.40
2017-08-09T20:08:06.534Z,246.13
2017-08-09T20:10:33.630Z,247.57
2017-08-09T20:12:59.741Z,126.47
2017-08-09T20:15:25.840Z,58.73
2017-08-09T20:17:52.711Z,48.50
2017-08-09T20:20:19.488Z,27.80
2017-08-09T20:22:45.588Z,19.47
2017-08-09T20:25:11.944Z,14.63
2017-08-09T20:27:38.281Z,91.70
2017-08-09T20:30:04.405Z,31.00
2017-08-09T20:32:30.688Z,23.73
2017-08-09T20:34:56.872Z,14.83
2017-08-09T20:37:23.758Z,12.43
2017-08-09T20:39:51.103Z,11.50
2017-08-09T20:42:17.206Z,13.80
2017-08-09T20:44:44.680Z,16.80
2017-08-09T20:47:11.042Z,11.20
2017-08-09T20:49:37.307Z,15.13
2017-08-09T20:52:03.411Z,43.17
2017-08-09T20:54:29.863Z,17.83
2017-08-09T20:56:56.884Z,20.70
2017-08-09T20:59:22.984Z,12.27
2017-08-09T21:01:49.077Z,132.87
2017-08-09T21:04:16.386Z,13.30
2017-08-09T21:06:43.634Z,83.13
2017-08-09T21:09:09.752Z,194.63
2017-08-09T21:11:35.889Z,22.50
2017-08-09T21:14:02.062Z,36.07
2017-08-09T21:16:28.903Z,172.37
2017-08-09T21:18:55.738Z,201.77
2017-08-09T21:21:21.870Z,355.10
2017-08-09T21:23:48.719Z,306.43
2017-08-09T21:26:15.559Z,109.90
2017-08-09T21:28:42.662Z,20.87
2017-08-09T21:31:08.761Z,76.70
2017-08-09T21:33:34.874Z,11.33
2017-08-09T21:36:01.350Z,41.50
2017-08-09T21:38:27.449Z,41.17
2017-08-09T21:40:53.558Z,15.50
2017-08-09T21:43:19.699Z,26.23
2017-08-09T21:45:45.790Z,38.07
2017-08-09T21:48:12.640Z,24.33
2017-08-09T21:50:39.491Z,219.07
2017-08-09T21:53:05.581Z,28.43
2017-08-09T21:55:31.722Z,64.97
2017-08-09T21:57:58.570Z,190.07
2017-08-09T22:00:25.403Z,37.70
2017-08-09T22:02:51.546Z,58.80
2017-08-09T22:05:18.138Z,60.73
2017-08-09T22:07:44.242Z,54.33
2017-08-09T22:10:10.682Z,51.73
2017-08-09T22:12:36.777Z,55.10
2017-08-09T22:15:02.922Z,39.30
2017-08-09T22:17:29.061Z,57.60
2017-08-09T22:19:55.160Z,142.33
2017-08-09T22:22:21.282Z,21.30
2017-08-09T22:24:47.402Z,333.63
2017-08-09T22:27:13.503Z,86.33
2017-08-09T22:29:40.346Z,140.27
2017-08-09T22:32:07.206Z,86.17
2017-08-09T22:34:33.311Z,29.47
2017-08-09T22:36:59.414Z,29.47
2017-08-09T22:39:25.566Z,49.23
2017-08-09T22:41:52.415Z,51.20
2017-08-09T22:44:19.254Z,32.50
2017-08-09T22:46:46.469Z,15.53
2017-08-09T22:49:12.566Z,21.83
2017-08-09T22:51:38.667Z,18.80
2017-08-09T22:54:05.555Z,16.03
2017-08-09T22:56:31.654Z,22.77
2017-08-09T22:58:57.766Z,34.87
2017-08-09T23:01:23.886Z,79.13
2017-08-09T23:03:50.737Z,43.93
2017-08-09T23:06:16.961Z,59.43
2017-08-09T23:08:43.062Z,41.97
2017-08-09T23:11:09.909Z,22.03
2017-08-09T23:13:36.771Z,35.70
2017-08-09T23:16:02.872Z,23.60
2017-08-09T23:18:28.965Z,34.13
2017-08-09T23:20:55.107Z,24.13
2017-08-09T23:23:21.203Z,25.13
2017-08-09T23:25:47.306Z,22.03
2017-08-09T23:28:13.401Z,19.83
2017-08-09T23:30:39.512Z,18.10
2017-08-09T23:33:05.617Z,21.60
2017-08-09T23:35:31.708Z,21.97
2017-08-09T23:37:57.819Z,25.17
2017-08-09T23:40:24.294Z,24.50
2017-08-09T23:42:50.403Z,24.40
2017-08-09T23:45:16.494Z,22.80
2017-08-09T23:47:43.515Z,18.73
2017-08-09T23:50:09.630Z,19.70
2017-08-09T23:52:35.741Z,24.33
2017-08-09T23:55:01.867Z,23.33
2017-08-09T23:57:27.959Z,21.90
2017-08-09T23:59:54.058Z,19.57
